Time;durP1;ratioP1;P1;durP2;ratioP2;P2;SDS_P1;SDS_P2;PMS_P1;PMS_P2;Temp;Humidity;BMP_temperature;BMP_pressure;BME280_temperature;BME280_humidity;BME280_pressure;Samples;Min_cycle;Max_cycle;Signal;HPM_P1;HPM_P2
2021/01/11 00:00:35;;;;;;;27.70;15.48;;;-1.60;85.10;;;-2.30;80.74;98731.09;5084699;28;20209;-84
2021/01/11 00:03:04;;;;;;;28.20;14.98;;;-1.60;85.50;;;-2.28;80.80;98726.81;5098427;28;20612;-84
2021/01/11 00:05:31;;;;;;;50.35;24.80;;;-1.60;85.40;;;-2.20;80.70;98735.25;5097425;28;20201;-84
2021/01/11 00:08:00;;;;;;;32.40;19.25;;;-1.50;85.30;;;-2.21;80.87;98725.91;5068284;28;20280;-84
2021/01/11 00:10:28;;;;;;;24.25;15.80;;;-1.60;84.90;;;-2.25;80.64;98729.34;5098143;28;20205;-84
2021/01/11 00:12:55;;;;;;;29.23;17.00;;;-1.60;85.20;;;-2.30;80.59;98731.09;5098198;28;20205;-84
2021/01/11 00:15:23;;;;;;;25.58;14.88;;;-1.70;85.30;;;-2.33;80.76;98723.44;5097134;28;20661;-84
2021/01/11 00:17:51;;;;;;;28.58;15.10;;;-1.70;85.70;;;-2.36;80.77;98726.88;5096098;28;20648;-84
2021/01/11 00:20:18;;;;;;;25.98;15.80;;;-1.70;85.70;;;-2.42;81.62;98724.38;5085678;28;20205;-84
2021/01/11 00:22:46;;;;;;;27.30;15.15;;;-1.70;86.10;;;-2.46;81.45;98726.09;5096045;28;20206;-84
2021/01/11 00:25:15;;;;;;;33.08;17.38;;;-1.80;86.50;;;-2.46;81.53;98728.66;5078340;28;20202;-84
2021/01/11 00:27:43;;;;;;;28.13;15.00;;;-1.70;86.70;;;-2.48;80.86;98724.41;5085493;28;20228;-84
2021/01/11 00:30:12;;;;;;;27.10;15.55;;;-1.80;86.10;;;-2.50;81.02;98721.88;5094197;28;20225;-84
2021/01/11 00:32:41;;;;;;;21.58;13.82;;;-1.80;85.70;;;-2.45;81.06;98729.50;5088346;28;20235;-84
2021/01/11 00:35:10;;;;;;;25.92;14.38;;;-1.70;86.00;;;-2.39;81.29;98726.91;5097519;28;20258;-84
2021/01/11 00:37:38;;;;;;;24.05;13.60;;;-1.70;86.30;;;-2.40;81.51;98732.88;5069758;28;20229;-84
2021/01/11 00:40:08;;;;;;;19.10;12.20;;;-1.70;86.50;;;-2.38;81.42;98731.16;5087462;28;20593;-84
2021/01/11 00:42:37;;;;;;;24.05;13.35;;;-1.70;86.20;;;-2.42;81.09;98727.78;5083313;28;20201;-84
2021/01/11 00:45:09;;;;;;;26.60;13.05;;;-1.70;85.90;;;-2.44;81.16;98726.09;5076809;28;20256;-84
2021/01/11 00:47:39;;;;;;;22.33;13.23;;;-1.70;85.80;;;-2.48;80.79;98725.28;5078380;28;20224;-84
2021/01/11 00:50:10;;;;;;;22.05;13.45;;;-1.70;85.50;;;-2.49;81.12;98723.59;5096056;28;20232;-84
2021/01/11 00:52:38;;;;;;;23.55;13.85;;;-1.80;85.50;;;-2.50;80.65;98733.81;5091098;28;20680;-84
2021/01/11 00:55:11;;;;;;;23.10;13.73;;;-1.80;85.40;;;-2.57;79.98;98734.69;5096186;28;20246;-84
2021/01/11 00:57:45;;;;;;;28.00;14.60;;;-1.80;84.30;;;-2.59;80.30;98728.75;5091118;28;20247;-84
2021/01/11 01:00:20;;;;;;;24.17;13.77;;;-1.80;84.50;;;-2.62;79.91;98731.34;5094287;28;20205;-84
2021/01/11 01:02:55;;;;;;;27.90;13.70;;;-1.90;84.30;;;-2.67;80.28;98728.81;5098310;28;20200;-84
2021/01/11 01:05:23;;;;;;;25.00;13.43;;;-1.90;84.50;;;-2.64;80.56;98722.84;5083458;28;20224;-84
2021/01/11 01:07:51;;;;;;;27.02;14.15;;;-1.90;84.60;;;-2.61;80.36;98727.94;5080308;28;20232;-84
2021/01/11 01:10:18;;;;;;;27.35;14.20;;;-1.90;84.10;;;-2.64;80.32;98727.97;5086987;28;20208;-84
2021/01/11 01:12:47;;;;;;;24.15;14.50;;;-1.80;86.00;;;-2.62;80.11;98736.44;5061586;28;20260;-84
2021/01/11 01:15:15;;;;;;;22.88;13.90;;;-1.90;84.80;;;-2.65;79.96;98728.81;5094224;28;20205;-84
2021/01/11 01:17:43;;;;;;;24.50;13.70;;;-1.90;84.20;;;-2.61;80.19;98733.03;5091832;28;20220;-84
2021/01/11 01:20:15;;;;;;;25.92;13.00;;;-1.90;84.70;;;-2.61;80.52;98733.03;5062756;28;20205;-83
2021/01/11 01:22:44;;;;;;;26.42;14.50;;;-1.90;85.10;;;-2.62;80.38;98733.88;5097023;28;20568;-84
2021/01/11 01:25:13;;;;;;;28.10;14.38;;;-1.90;85.10;;;-2.62;79.83;98732.16;5096324;28;20204;-84
2021/01/11 01:27:41;;;;;;;30.23;15.98;;;-1.90;85.60;;;-2.60;80.30;98737.25;5091866;28;20229;-84
2021/01/11 01:30:12;;;;;;;27.27;14.27;;;-1.90;84.80;;;-2.62;80.28;98739.81;5095489;28;20661;-84
2021/01/11 01:32:40;;;;;;;24.90;13.95;;;-1.90;84.60;;;-2.65;79.94;98737.28;5080374;28;20209;-84
2021/01/11 01:35:11;;;;;;;22.48;13.50;;;-1.80;84.50;;;-2.65;79.50;98739.84;5098281;28;20628;-84
2021/01/11 01:37:39;;;;;;;22.60;13.73;;;-1.90;84.20;;;-2.69;79.70;98739.88;5096120;28;20232;-84
2021/01/11 01:40:08;;;;;;;24.58;13.52;;;-1.90;84.20;;;-2.68;79.10;98746.69;5096318;28;20209;-84
2021/01/11 01:42:36;;;;;;;21.63;12.73;;;-1.90;84.10;;;-2.70;79.86;98743.31;5095770;28;20193;-84
2021/01/11 01:45:06;;;;;;;24.58;13.60;;;-2.00;83.80;;;-2.71;79.39;98744.16;5094049;28;20251;-84
2021/01/11 01:47:35;;;;;;;23.85;13.98;;;-2.00;83.80;;;-2.74;79.64;98745.03;5079616;28;20202;-84
2021/01/11 01:50:07;;;;;;;23.42;13.23;;;-2.00;83.70;;;-2.77;80.14;98739.09;5096079;28;20547;-84
2021/01/11 01:52:37;;;;;;;24.60;13.52;;;-2.00;83.80;;;-2.76;79.72;98748.44;5082743;28;20236;-84
2021/01/11 01:55:06;;;;;;;26.55;13.20;;;-2.00;84.00;;;-2.76;79.11;98735.69;5077555;28;20267;-84
2021/01/11 01:57:33;;;;;;;22.50;13.70;;;-2.00;83.40;;;-2.78;79.09;98730.59;5082233;28;21116;-84
2021/01/11 02:00:03;;;;;;;20.45;12.10;;;-2.00;82.70;;;-2.80;79.05;98731.44;5095642;28;20205;-84
2021/01/11 02:02:42;;;;;;;20.98;11.35;;;-2.10;83.20;;;-2.78;79.46;98730.59;5096261;28;20204;-84
2021/01/11 02:05:10;;;;;;;24.85;12.45;;;-2.00;83.40;;;-2.79;79.47;98723.78;5097780;28;20599;-83
2021/01/11 02:07:47;;;;;;;23.67;13.30;;;-2.10;83.70;;;-2.82;80.07;98725.53;5079188;28;20235;-84
2021/01/11 02:10:27;;;;;;;21.80;13.15;;;-2.10;84.20;;;-2.84;79.61;98729.78;5077855;28;20699;-84
2021/01/11 02:13:12;;;;;;;23.00;12.40;;;-2.10;84.00;;;-2.83;79.41;98722.97;5083015;28;20225;-84
2021/01/11 02:16:04;;;;;;;20.63;11.40;;;-2.10;83.90;;;-2.79;79.43;98723.78;5096601;28;20250;-84
2021/01/11 02:18:45;;;;;;;22.17;12.35;;;-2.10;84.10;;;-2.82;80.17;98714.47;5093311;28;20194;-84
2021/01/11 02:22:00;;;;;;;20.90;11.80;;;-2.10;84.50;;;-2.76;80.25;98715.28;5076251;28;20292;-84
2021/01/11 02:25:17;;;;;;;20.70;10.93;;;-2.10;84.80;;;-2.82;80.33;98707.66;5086373;28;20267;-84
2021/01/11 02:27:48;;;;;;;26.67;11.85;;;-2.10;84.80;;;-2.86;79.49;98708.53;5092065;28;20255;-84
2021/01/11 02:30:30;;;;;;;20.48;11.80;;;-2.10;84.40;;;-2.86;79.27;98707.69;5094106;28;20205;-84
2021/01/11 02:33:04;;;;;;;21.10;11.10;;;-2.20;83.30;;;-2.92;79.25;98707.72;5096191;28;20200;-84
2021/01/11 02:35:53;;;;;;;19.13;11.55;;;-2.20;83.40;;;-2.91;79.83;98712.81;5087850;28;20661;-84
2021/01/11 02:38:23;;;;;;;18.48;11.20;;;-2.20;84.10;;;-2.95;79.38;98706.03;5086108;28;20208;-84
2021/01/11 02:40:51;;;;;;;19.30;10.73;;;-2.20;83.70;;;-2.89;79.55;98706.00;5081786;28;20218;-84
2021/01/11 02:43:19;;;;;;;22.63;11.93;;;-2.20;83.50;;;-2.87;80.07;98704.31;5085617;28;20702;-84
2021/01/11 02:45:47;;;;;;;21.38;12.00;;;-2.20;83.80;;;-2.82;80.52;98703.41;5095299;28;20216;-84
2021/01/11 02:48:24;;;;;;;20.98;10.85;;;-2.20;85.00;;;-2.85;80.82;98702.59;5092000;28;20202;-84
2021/01/11 02:51:02;;;;;;;20.63;12.50;;;-2.20;85.30;;;-2.90;80.55;98698.34;5082807;28;20203;-84
2021/01/11 02:53:41;;;;;;;21.75;11.80;;;-2.20;85.10;;;-2.96;80.00;98698.41;5095019;28;20193;-84
2021/01/11 02:56:11;;;;;;;20.50;12.20;;;-2.20;84.80;;;-3.01;79.53;98698.41;5079255;28;20225;-84
2021/01/11 02:59:05;;;;;;;19.88;11.20;;;-2.30;83.30;;;-3.02;79.41;98699.31;5094195;28;20239;-84
2021/01/11 03:01:43;;;;;;;26.02;12.13;;;-2.30;83.60;;;-2.96;79.49;98709.47;5090887;28;20232;-84
2021/01/11 03:04:20;;;;;;;20.75;11.45;;;-2.20;83.90;;;-2.98;80.21;98711.16;5081429;28;20260;-84
2021/01/11 03:06:59;;;;;;;23.33;13.40;;;-2.30;84.40;;;-2.93;80.56;98709.44;5092797;28;20208;-84
2021/01/11 03:09:28;;;;;;;23.58;12.57;;;-2.20;85.00;;;-2.92;79.33;98706.00;5081949;28;20212;-84
2021/01/11 03:11:57;;;;;;;22.70;10.90;;;-2.20;84.10;;;-2.98;78.45;98700.13;5115170;28;20232;-84
2021/01/11 03:14:25;;;;;;;19.40;11.30;;;-2.20;82.60;;;-3.02;78.53;98696.75;5099691;28;20205;-84
2021/01/11 03:16:54;;;;;;;21.25;12.45;;;-2.30;82.50;;;-3.00;79.30;98701.84;5096130;28;20286;-83
2021/01/11 03:19:22;;;;;;;21.63;12.70;;;-2.30;83.10;;;-2.92;79.24;98698.38;5095099;28;20213;-84
2021/01/11 03:21:51;;;;;;;18.15;11.32;;;-2.20;83.50;;;-3.01;79.73;98695.88;5095253;28;20247;-85
2021/01/11 03:24:20;;;;;;;25.75;12.90;;;-2.20;83.80;;;-2.98;80.10;98690.75;5098731;28;20197;-86
2021/01/11 03:26:49;;;;;;;25.38;11.73;;;-2.20;84.20;;;-2.94;80.70;98700.09;5096468;28;20275;-85
2021/01/11 03:29:19;;;;;;;24.23;12.52;;;-2.20;84.80;;;-2.86;80.63;98708.53;5097410;28;20216;-85
2021/01/11 03:31:47;;;;;;;23.90;12.98;;;-2.20;85.20;;;-2.84;79.27;98708.53;5111394;28;20209;-85
2021/01/11 03:34:16;;;;;;;19.33;11.05;;;-2.10;83.50;;;-2.93;79.09;98700.94;5091161;28;20196;-85
2021/01/11 03:36:44;;;;;;;18.33;11.48;;;-2.20;83.20;;;-3.06;77.85;98714.63;5098638;28;20229;-85
2021/01/11 03:39:12;;;;;;;22.95;12.60;;;-2.30;81.60;;;-3.06;77.77;98712.91;5080584;28;20260;-85
2021/01/11 03:41:41;;;;;;;21.75;12.75;;;-2.30;82.30;;;-3.09;78.15;98709.53;5081199;28;20213;-85
2021/01/11 03:44:10;;;;;;;22.83;12.13;;;-2.30;81.50;;;-3.18;77.77;98705.31;5082147;28;20538;-85
2021/01/11 03:46:38;;;;;;;20.05;11.48;;;-2.40;81.50;;;-3.21;78.59;98709.59;5093517;28;20657;-85
2021/01/11 03:49:06;;;;;;;24.27;12.45;;;-2.40;82.20;;;-3.11;79.34;98709.56;5096825;28;20640;-85
2021/01/11 03:51:34;;;;;;;32.03;13.50;;;-2.40;82.90;;;-3.07;80.08;98711.22;5091405;28;20225;-85
2021/01/11 03:54:02;;;;;;;23.70;12.10;;;-2.30;84.40;;;-2.95;80.77;98695.84;5098659;28;20217;-85
2021/01/11 03:56:30;;;;;;;25.88;13.13;;;-2.20;85.40;;;-2.84;80.86;98703.41;5080335;28;20266;-85
2021/01/11 03:58:58;;;;;;;24.40;12.98;;;-2.20;85.10;;;-2.79;81.10;98707.66;5082300;28;20212;-85
2021/01/11 04:01:27;;;;;;;26.55;12.85;;;-2.10;85.20;;;-2.84;81.04;98709.38;5080890;28;20219;-85
2021/01/11 04:03:55;;;;;;;26.38;12.50;;;-2.10;85.50;;;-2.78;81.03;98706.81;5089926;28;20223;-86
2021/01/11 04:06:23;;;;;;;30.10;13.80;;;-2.10;85.40;;;-2.83;80.21;98700.03;5096911;28;20266;-85
2021/01/11 04:08:51;;;;;;;23.13;12.07;;;-2.10;84.90;;;-2.89;79.63;98700.06;5095121;28;20200;-85
2021/01/11 04:11:20;;;;;;;23.02;12.55;;;-2.20;83.80;;;-2.87;79.40;98706.84;5077622;28;20209;-85
2021/01/11 04:13:48;;;;;;;25.35;13.13;;;-2.10;83.70;;;-2.85;79.64;98706.84;5096076;28;20201;-85
2021/01/11 04:16:17;;;;;;;20.02;11.50;;;-2.10;85.10;;;-2.89;79.44;98705.16;5079315;28;20204;-85
2021/01/11 04:18:45;;;;;;;25.05;13.18;;;-2.10;83.80;;;-2.97;78.50;98712.84;5096964;28;20201;-85
2021/01/11 04:21:13;;;;;;;22.25;12.02;;;-2.20;82.70;;;-2.98;78.57;98716.25;5100474;28;20197;-86
2021/01/11 04:23:41;;;;;;;22.77;12.80;;;-2.20;82.40;;;-2.99;79.12;98706.94;5093232;28;20209;-85
2021/01/11 04:26:10;;;;;;;22.73;12.10;;;-2.20;83.20;;;-3.09;78.17;98710.38;5081053;28;20316;-85
2021/01/11 04:28:38;;;;;;;25.30;12.23;;;-2.30;82.50;;;-3.11;79.23;98713.78;5092922;28;20634;-85
2021/01/11 04:31:07;;;;;;;21.70;11.40;;;-2.30;82.80;;;-3.10;79.88;98713.78;5085640;28;20251;-85
2021/01/11 04:33:35;;;;;;;27.15;13.32;;;-2.30;83.60;;;-3.07;79.88;98718.84;5087111;28;20205;-85
2021/01/11 04:36:04;;;;;;;22.73;13.80;;;-2.30;83.80;;;-2.99;79.55;98712.03;5091683;28;20737;-85
2021/01/11 04:38:32;;;;;;;24.17;13.10;;;-2.20;84.10;;;-2.87;80.34;98718.75;5096598;28;20212;-85
2021/01/11 04:41:02;;;;;;;25.55;12.43;;;-2.20;84.70;;;-2.85;79.66;98707.69;5083494;28;20761;-85
2021/01/11 04:43:36;;;;;;;22.08;11.95;;;-2.10;84.60;;;-2.79;79.61;98717.84;5094060;28;20235;-85
2021/01/11 04:46:03;;;;;;;20.55;11.50;;;-2.10;84.40;;;-2.73;79.70;98710.16;5076815;28;20534;-85
2021/01/11 04:48:31;;;;;;;19.30;10.75;;;-2.10;83.70;;;-2.82;78.86;98717.88;5092124;28;20196;-85
2021/01/11 04:50:59;;;;;;;20.88;11.18;;;-2.10;83.00;;;-2.85;79.00;98709.41;5095387;28;20200;-85
2021/01/11 04:53:27;;;;;;;23.40;12.43;;;-2.00;83.60;;;-2.87;79.04;98704.31;5094441;28;20201;-85
2021/01/11 04:55:59;;;;;;;20.75;12.57;;;-2.10;83.30;;;-2.92;78.41;98713.66;5096070;28;20255;-85
2021/01/11 04:58:55;;;;;;;20.48;11.48;;;-2.20;82.40;;;-2.95;78.56;98710.31;5092537;28;20212;-85
2021/01/11 05:01:24;;;;;;;21.73;12.00;;;-2.20;82.40;;;-3.00;78.50;98697.56;5097950;28;20220;-85
2021/01/11 05:03:55;;;;;;;21.85;12.55;;;-2.20;82.20;;;-3.00;78.20;98700.13;5095275;28;20192;-85
2021/01/11 05:06:23;;;;;;;19.60;9.75;;;-2.20;82.10;;;-2.99;78.37;98694.19;5093930;28;20197;-85
2021/01/11 05:08:51;;;;;;;21.95;11.43;;;-2.20;82.20;;;-3.03;78.23;98700.16;5088003;28;20235;-85
2021/01/11 05:11:18;;;;;;;23.25;12.27;;;-2.30;82.00;;;-2.99;78.78;98699.28;5093677;28;20200;-85
2021/01/11 05:13:51;;;;;;;19.65;10.63;;;-2.20;82.50;;;-2.97;78.80;98689.91;5089464;28;20221;-85
2021/01/11 05:16:22;;;;;;;22.95;11.50;;;-2.20;82.70;;;-2.95;78.96;98700.94;5082061;28;20205;-85
2021/01/11 05:18:57;;;;;;;23.02;10.93;;;-2.20;82.90;;;-2.94;78.85;98696.69;5079898;28;20204;-85
2021/01/11 05:21:41;;;;;;;20.60;11.48;;;-2.20;82.90;;;-2.92;78.44;98700.09;5089239;28;20201;-85
2021/01/11 05:24:31;;;;;;;18.63;10.30;;;-2.20;82.60;;;-2.95;78.64;98700.09;5076869;28;20196;-85
2021/01/11 05:27:01;;;;;;;22.15;11.82;;;-2.20;82.50;;;-2.98;78.63;98690.75;5094298;28;20316;-85
2021/01/11 05:29:31;;;;;;;20.35;10.57;;;-2.20;82.40;;;-3.02;78.42;98691.66;5081782;28;20205;-85
2021/01/11 05:32:01;;;;;;;24.20;11.43;;;-2.30;81.70;;;-3.07;77.95;98689.97;5096545;28;20205;-85
2021/01/11 05:34:45;;;;;;;20.58;11.10;;;-2.30;81.50;;;-3.13;78.03;98702.75;5084087;28;20259;-85
2021/01/11 05:37:35;;;;;;;24.30;13.02;;;-2.40;81.30;;;-3.10;77.75;98701.03;5096487;28;20279;-85
2021/01/11 05:40:10;;;;;;;26.23;14.80;;;-2.30;81.00;;;-3.19;77.82;98718.06;5110700;28;20683;-85
2021/01/11 05:42:39;;;;;;;22.40;12.10;;;-2.40;80.60;;;-3.22;77.27;98710.44;5095836;28;20620;-85
2021/01/11 05:45:13;;;;;;;24.60;12.90;;;-2.40;80.30;;;-3.21;76.89;98707.88;5089871;28;20865;-85
2021/01/11 05:48:09;;;;;;;25.02;13.43;;;-2.40;80.20;;;-3.28;76.80;98722.38;5095757;28;20188;-85
2021/01/11 05:50:39;;;;;;;24.13;14.10;;;-2.50;80.50;;;-3.34;77.08;98722.41;5023404;28;20681;-85
2021/01/11 05:53:18;;;;;;;29.67;15.35;;;-2.50;80.70;;;-3.36;77.62;98721.56;5092143;28;20189;-85
2021/01/11 05:55:46;;;;;;;25.55;14.05;;;-2.60;80.90;;;-3.33;77.79;98719.84;5088361;28;20211;-85
2021/01/11 05:58:14;;;;;;;22.98;14.07;;;-2.50;80.90;;;-3.33;77.02;98721.56;5086429;28;20217;-85
2021/01/11 06:00:43;;;;;;;24.95;13.18;;;-2.60;80.10;;;-3.43;76.87;98717.34;5092793;28;20201;-85
2021/01/11 06:03:12;;;;;;;23.60;11.07;;;-2.60;79.90;;;-3.43;77.59;98715.63;5094170;28;20212;-85
2021/01/11 06:05:41;;;;;;;24.40;13.60;;;-2.60;80.40;;;-3.43;77.57;98725.00;5095726;28;20219;-85
2021/01/11 06:08:11;;;;;;;23.48;12.52;;;-2.60;81.00;;;-3.37;77.58;98730.06;5094313;28;20213;-85
2021/01/11 06:10:40;;;;;;;28.10;14.77;;;-2.60;80.90;;;-3.36;77.83;98719.88;5076949;28;20243;-85
2021/01/11 06:13:08;;;;;;;23.90;11.80;;;-2.60;81.10;;;-3.38;78.07;98724.13;5088017;28;20205;-85
2021/01/11 06:15:37;;;;;;;21.50;11.48;;;-2.60;81.20;;;-3.41;78.27;98718.19;5094576;28;20212;-85
2021/01/11 06:18:11;;;;;;;22.67;12.18;;;-2.60;81.50;;;-3.42;77.82;98721.59;5092473;28;20730;-85
2021/01/11 06:20:44;;;;;;;20.45;11.23;;;-2.70;81.40;;;-3.44;78.14;98719.06;5083688;28;20205;-85
2021/01/11 06:23:14;;;;;;;23.27;13.02;;;-2.70;81.50;;;-3.40;78.54;98724.97;5086715;28;20239;-85
2021/01/11 06:25:45;;;;;;;20.88;11.10;;;-2.60;82.00;;;-3.41;77.70;98715.63;5093726;28;20209;-85
2021/01/11 06:28:13;;;;;;;24.25;11.25;;;-2.60;81.70;;;-3.43;77.12;98714.78;5093512;28;20742;-85
2021/01/11 06:30:46;;;;;;;22.58;11.23;;;-2.70;80.70;;;-3.49;77.06;98720.75;5093917;28;20204;-85
2021/01/11 06:33:18;;;;;;;29.70;12.32;;;-2.60;80.50;;;-3.44;77.54;98721.59;5095960;28;20207;-85
2021/01/11 06:35:48;;;;;;;21.42;11.45;;;-2.70;80.90;;;-3.39;77.71;98730.06;5095642;28;20219;-85
2021/01/11 06:38:22;;;;;;;24.85;11.90;;;-2.70;81.00;;;-3.33;77.94;98724.94;5099555;28;20204;-85
2021/01/11 06:40:52;;;;;;;20.42;11.40;;;-2.60;81.30;;;-3.22;78.22;98721.50;5098044;28;20231;-85
2021/01/11 06:43:22;;;;;;;22.90;10.93;;;-2.50;81.90;;;-3.25;77.96;98723.19;5081153;28;20212;-85
2021/01/11 06:45:51;;;;;;;20.73;11.70;;;-2.60;82.10;;;-3.22;78.35;98726.59;5099615;28;20430;-85
2021/01/11 06:48:21;;;;;;;21.70;11.75;;;-2.50;83.00;;;-3.10;78.40;98721.41;5098738;28;20193;-85
2021/01/11 06:50:50;;;;;;;18.45;10.48;;;-2.40;82.50;;;-3.07;78.38;98720.56;5091223;28;20201;-85
2021/01/11 06:53:28;;;;;;;22.80;11.75;;;-2.40;82.40;;;-3.16;78.22;98728.25;5095160;28;20196;-84
2021/01/11 06:56:07;;;;;;;19.80;10.45;;;-2.40;81.90;;;-3.07;77.84;98731.59;5099558;28;20216;-85
2021/01/11 06:58:37;;;;;;;22.08;11.27;;;-2.40;81.90;;;-3.09;77.86;98728.22;5094021;28;20217;-85
2021/01/11 07:01:08;;;;;;;26.08;12.23;;;-2.40;81.20;;;-3.11;78.96;98727.41;5099365;28;20205;-86
2021/01/11 07:03:47;;;;;;;23.13;12.40;;;-2.40;82.50;;;-3.10;78.07;98730.78;5090924;28;20198;-86
2021/01/11 07:06:35;;;;;;;21.90;12.27;;;-2.40;82.30;;;-3.16;78.09;98739.31;5095905;28;20193;-86
2021/01/11 07:09:12;;;;;;;22.08;11.73;;;-2.40;81.80;;;-3.14;78.29;98734.22;5088605;28;20228;-85
2021/01/11 07:11:41;;;;;;;19.98;11.02;;;-2.40;81.90;;;-3.18;78.30;98737.63;5100791;28;20648;-87
2021/01/11 07:14:10;;;;;;;20.98;11.38;;;-2.40;82.00;;;-3.19;78.42;98741.03;5082329;28;20203;-86
2021/01/11 07:16:44;;;;;;;25.15;12.38;;;-2.40;82.20;;;-3.14;78.51;98740.16;5093154;28;20822;-86
2021/01/11 07:19:14;;;;;;;21.98;11.02;;;-2.40;82.40;;;-3.03;78.38;98747.75;5082646;28;20201;-86
2021/01/11 07:21:42;;;;;;;23.27;11.65;;;-2.40;82.40;;;-3.04;78.48;98746.06;5086517;28;20205;-86
2021/01/11 07:24:11;;;;;;;23.17;12.95;;;-2.30;82.50;;;-3.01;78.83;98746.88;5100080;28;20201;-89
2021/01/11 07:26:38;;;;;;;26.30;13.70;;;-2.30;82.70;;;-2.98;78.99;98746.03;5082426;28;20296;-86
2021/01/11 07:29:09;;;;;;;21.13;11.85;;;-2.30;82.80;;;-2.96;79.17;98737.50;5083656;28;20216;-86
2021/01/11 07:31:42;;;;;;;22.38;11.77;;;-2.20;82.70;;;-2.91;79.06;98740.88;5098861;28;20204;-86
2021/01/11 07:34:13;;;;;;;21.77;12.65;;;-2.20;83.00;;;-2.94;79.01;98748.53;5098216;28;20250;-86
2021/01/11 07:36:43;;;;;;;29.75;15.35;;;-2.20;83.30;;;-2.86;79.51;98751.91;5094494;28;20281;-85
2021/01/11 07:39:18;;;;;;;24.23;12.90;;;-2.10;83.60;;;-2.85;79.88;98745.94;5090633;28;20201;-85
2021/01/11 07:41:48;;;;;;;24.92;12.88;;;-2.10;84.00;;;-2.78;79.49;98752.72;5090117;28;20616;-85
2021/01/11 07:44:23;;;;;;;20.77;12.32;;;-2.10;83.80;;;-2.74;79.86;98742.50;5096633;28;20204;-85
2021/01/11 07:46:57;;;;;;;22.13;11.80;;;-2.10;83.90;;;-2.75;79.02;98743.34;5098307;28;20640;-85
2021/01/11 07:49:27;;;;;;;24.13;12.30;;;-2.00;83.50;;;-2.73;78.81;98743.31;5079666;28;20339;-85
2021/01/11 07:52:01;;;;;;;27.63;12.75;;;-2.00;83.20;;;-2.77;78.85;98751.84;5080023;28;20205;-85
2021/01/11 07:54:29;;;;;;;22.45;11.60;;;-2.10;82.70;;;-2.79;78.37;98764.59;5098283;28;20211;-85
2021/01/11 07:56:57;;;;;;;26.10;13.48;;;-2.10;82.50;;;-2.75;79.28;98768.00;5096732;28;20216;-85
2021/01/11 07:59:26;;;;;;;44.63;21.77;;;-2.10;82.90;;;-2.70;79.19;98776.47;5097410;28;20201;-85
2021/01/11 08:01:54;;;;;;;43.17;21.50;;;-2.00;83.20;;;-2.66;78.77;98781.56;5097325;28;20200;-86
2021/01/11 08:04:22;;;;;;;42.20;19.00;;;-2.00;82.90;;;-2.60;79.01;98773.00;5096767;28;20271;-86
2021/01/11 08:06:57;;;;;;;25.60;15.20;;;-1.90;83.50;;;-2.57;79.30;98778.06;5097472;28;20640;-86
2021/01/11 08:09:27;;;;;;;33.35;16.33;;;-1.90;83.80;;;-2.44;79.64;98779.69;5104546;28;20219;-86
2021/01/11 08:12:06;;;;;;;29.08;14.68;;;-1.80;84.10;;;-2.37;79.59;98779.66;5093012;28;20204;-86
2021/01/11 08:14:36;;;;;;;32.22;15.63;;;-1.70;84.30;;;-2.28;79.49;98785.53;5099512;28;20208;-86
2021/01/11 08:17:06;;;;;;;36.53;15.88;;;-1.60;84.10;;;-2.19;79.31;98780.34;5091006;28;20248;-85
2021/01/11 08:19:34;;;;;;;25.85;14.52;;;-1.60;84.00;;;-2.14;79.13;98776.03;5097850;28;20205;-85
2021/01/11 08:22:03;;;;;;;27.17;15.13;;;-1.50;83.70;;;-2.05;78.91;98773.41;5065252;28;20715;-85
2021/01/11 08:24:31;;;;;;;27.95;16.35;;;-1.40;83.70;;;-2.03;79.74;98771.72;5095502;28;20205;-85
2021/01/11 08:27:06;;;;;;;28.67;15.00;;;-1.40;84.30;;;-1.96;80.06;98762.28;5094712;28;20232;-85
2021/01/11 08:29:39;;;;;;;34.10;16.67;;;-1.30;85.00;;;-1.90;80.51;98773.28;5092617;28;20208;-85
2021/01/11 08:32:12;;;;;;;24.00;13.70;;;-1.20;84.90;;;-1.87;80.88;98773.25;5097867;28;20200;-85
2021/01/11 08:34:41;;;;;;;31.88;16.13;;;-1.20;86.10;;;-1.80;81.45;98778.31;5092627;28;20635;-85
2021/01/11 08:37:31;;;;;;;22.70;13.18;;;-1.20;86.70;;;-1.65;81.56;98779.88;5092186;28;20221;-85
2021/01/11 08:40:01;;;;;;;26.20;12.60;;;-1.00;87.30;;;-1.56;81.61;98770.41;5094556;28;20267;-85
2021/01/11 08:42:30;;;;;;;24.30;13.40;;;-1.00;87.20;;;-1.49;81.14;98768.63;5098751;28;20204;-85
2021/01/11 08:45:29;;;;;;;24.98;13.52;;;-0.90;86.90;;;-1.39;81.30;98774.47;5098209;28;20633;-85
2021/01/11 08:48:03;;;;;;;33.40;14.95;;;-0.80;87.40;;;-1.29;81.48;98778.63;5070358;28;20268;-85
2021/01/11 08:50:34;;;;;;;27.35;13.57;;;-0.70;86.70;;;-1.21;81.60;98768.31;5080545;28;20606;-86
2021/01/11 08:53:23;;;;;;;27.77;13.77;;;-0.70;87.10;;;-1.12;81.61;98769.03;5088367;28;20212;-87
2021/01/11 08:56:00;;;;;;;27.00;13.53;;;-0.50;87.80;;;-0.99;81.57;98769.72;5094024;28;20209;-86
2021/01/11 08:58:29;;;;;;;24.90;13.23;;;-0.50;88.00;;;-0.90;81.41;98770.47;5095367;28;20670;-86
2021/01/11 09:01:12;;;;;;;29.38;13.90;;;-0.40;88.00;;;-0.81;81.77;98783.16;5098114;28;20228;-87
2021/01/11 09:03:47;;;;;;;30.08;14.40;;;-0.30;87.50;;;-0.67;81.60;98778.69;5098778;28;20205;-86
2021/01/11 09:06:35;;;;;;;23.80;14.48;;;-0.10;88.30;;;-0.58;81.28;98781.97;5094107;28;20198;-87
2021/01/11 09:09:07;;;;;;;25.02;13.23;;;0.00;88.10;;;-0.47;80.78;98784.38;5078469;28;20209;-87
2021/01/11 09:11:36;;;;;;;24.55;14.02;;;0.00;87.10;;;-0.27;80.11;98786.63;5089783;28;20634;-86
2021/01/11 09:14:07;;;;;;;26.00;13.85;;;0.30;86.90;;;-0.19;80.42;98771.97;5098279;28;20204;-87
2021/01/11 09:16:36;;;;;;;25.98;14.27;;;0.30;86.30;;;-0.16;79.62;98789.03;5091721;28;20201;-87
2021/01/11 09:19:09;;;;;;;24.80;12.80;;;0.30;85.60;;;-0.05;78.95;98785.41;5079531;28;20221;-87
2021/01/11 09:21:39;;;;;;;30.35;15.45;;;0.40;85.40;;;-0.02;78.57;98795.63;5096551;28;20212;-87
2021/01/11 09:24:08;;;;;;;25.50;13.67;;;0.40;84.80;;;-0.16;79.71;98801.84;5094349;28;20208;-87
2021/01/11 09:26:38;;;;;;;30.08;14.82;;;0.40;84.80;;;-0.19;79.12;98810.41;5098243;28;20649;-87
2021/01/11 09:29:08;;;;;;;33.47;16.92;;;0.30;84.90;;;-0.15;78.91;98804.38;5087923;28;20192;-87
2021/01/11 09:31:36;;;;;;;28.70;14.13;;;0.30;84.70;;;-0.03;79.05;98805.88;5096046;28;20203;-87
2021/01/11 09:34:04;;;;;;;29.85;15.50;;;0.40;84.80;;;0.09;79.12;98793.72;5095015;28;20623;-85
2021/01/11 09:36:33;;;;;;;27.37;15.70;;;0.50;85.30;;;0.18;79.05;98796.13;5098246;28;20204;-87
2021/01/11 09:39:01;;;;;;;36.72;16.25;;;0.60;85.10;;;0.14;79.03;98792.78;5091143;28;21185;-86
2021/01/11 09:41:29;;;;;;;28.17;14.13;;;0.70;84.50;;;0.23;79.44;98802.06;5077741;28;20213;-85
2021/01/11 09:43:57;;;;;;;27.73;14.50;;;0.70;84.60;;;0.32;79.38;98801.91;5097384;28;20209;-85
2021/01/11 09:46:24;;;;;;;29.93;15.87;;;0.80;85.30;;;0.44;78.76;98817.03;5086471;28;20630;-85
2021/01/11 09:48:53;;;;;;;62.70;37.70;;;0.90;84.20;;;0.53;79.20;98816.03;5099207;28;20635;-86
2021/01/11 09:51:28;;;;;;;28.50;15.75;;;1.00;85.00;;;0.72;78.84;98808.84;5097098;28;20641;-86
2021/01/11 09:53:56;;;;;;;29.53;14.43;;;1.20;84.70;;;0.77;77.71;98802.75;5091377;28;20209;-85
2021/01/11 09:56:23;;;;;;;27.27;14.50;;;1.30;83.80;;;0.87;77.85;98809.38;5096464;28;20702;-84
2021/01/11 09:58:54;;;;;;;26.77;15.17;;;1.30;83.80;;;0.98;76.58;98804.94;5086837;28;20639;-85
2021/01/11 10:01:22;;;;;;;29.65;15.15;;;1.50;83.50;;;1.14;76.48;98801.16;5094158;28;20626;-82
2021/01/11 10:03:50;;;;;;;23.50;14.00;;;1.60;82.30;;;1.23;75.39;98796.66;5094643;28;20594;-82
2021/01/11 10:06:21;;;;;;;28.03;14.40;;;1.70;81.20;;;1.31;74.89;98794.81;5090868;28;20708;-82
2021/01/11 10:08:48;;;;;;;23.30;13.50;;;1.80;80.00;;;1.36;74.41;98793.00;5091847;28;20717;-82
2021/01/11 10:11:18;;;;;;;24.13;14.40;;;1.90;78.80;;;1.40;73.66;98780.03;5102592;28;21165;-82
2021/01/11 10:13:45;;;;;;;26.53;14.33;;;1.90;78.70;;;1.46;73.69;98785.06;5090157;28;20622;-81
2021/01/11 10:16:14;;;;;;;25.00;13.97;;;2.00;78.30;;;1.54;73.77;98788.28;5086012;28;20658;-81
2021/01/11 10:18:42;;;;;;;20.57;13.23;;;2.00;77.80;;;1.62;72.70;98786.38;5093678;28;20746;-81
2021/01/11 10:21:09;;;;;;;25.47;14.40;;;2.10;77.30;;;1.64;72.14;98789.78;5095452;28;20623;-81
2021/01/11 10:23:38;;;;;;;25.43;14.80;;;2.10;76.40;;;1.69;72.90;98777.69;5094270;28;20678;-81
2021/01/11 10:26:07;;;;;;;20.93;12.97;;;2.20;76.70;;;1.77;72.72;98775.75;5095866;28;20631;-81